createdAt,value
2023-05-20T00:00:16.339Z,14.30
2023-05-20T00:02:46.602Z,14.20
2023-05-20T00:05:15.369Z,14.10
2023-05-20T00:07:44.093Z,14.10
2023-05-20T00:10:13.202Z,14.00
2023-05-20T00:12:41.989Z,14.10
2023-05-20T00:15:13.214Z,14.10
2023-05-20T00:17:42.026Z,14.10
2023-05-20T00:20:13.272Z,14.00
2023-05-20T00:22:41.936Z,13.90
2023-05-20T00:25:11.146Z,14.00
2023-05-20T00:27:39.868Z,14.00
2023-05-20T00:30:10.487Z,13.80
2023-05-20T00:32:39.312Z,13.70
2023-05-20T00:35:11.773Z,13.80
2023-05-20T00:37:40.504Z,13.80
2023-05-20T00:40:11.016Z,13.70
2023-05-20T00:42:41.422Z,13.70
2023-05-20T00:45:11.525Z,13.80
2023-05-20T00:47:40.820Z,13.80
2023-05-20T00:50:12.772Z,13.80
2023-05-20T00:52:45.293Z,13.80
2023-05-20T00:55:14.389Z,13.80
2023-05-20T00:57:43.396Z,13.80
2023-05-20T01:00:13.845Z,13.80
2023-05-20T01:02:42.693Z,13.90
2023-05-20T01:05:13.203Z,13.90
2023-05-20T01:07:42.446Z,13.90
2023-05-20T01:10:12.700Z,13.80
2023-05-20T01:12:47.635Z,13.70
2023-05-20T01:15:18.113Z,13.80
2023-05-20T01:17:52.469Z,13.80
2023-05-20T01:20:24.129Z,13.80
2023-05-20T01:22:57.771Z,13.80
2023-05-20T01:25:26.910Z,13.70
2023-05-20T01:27:58.898Z,13.70
2023-05-20T01:30:37.253Z,13.70
2023-05-20T01:33:11.910Z,13.70
2023-05-20T01:35:42.963Z,13.70
2023-05-20T01:38:13.973Z,13.60
2023-05-20T01:40:44.980Z,13.60
2023-05-20T01:43:17.492Z,13.70
2023-05-20T01:45:46.929Z,13.70
2023-05-20T01:48:16.941Z,13.70
2023-05-20T01:50:45.982Z,13.50
2023-05-20T01:53:16.388Z,13.50
2023-05-20T01:55:45.216Z,13.40
2023-05-20T01:58:14.253Z,13.40
2023-05-20T02:00:43.013Z,13.40
2023-05-20T02:03:11.844Z,13.40
2023-05-20T02:05:43.854Z,13.40
2023-05-20T02:08:12.610Z,13.30
2023-05-20T02:10:43.922Z,13.30
2023-05-20T02:13:14.636Z,13.30
2023-05-20T02:15:47.384Z,13.30
2023-05-20T02:18:18.879Z,13.30
2023-05-20T02:20:47.934Z,13.30
2023-05-20T02:23:16.681Z,13.30
2023-05-20T02:25:47.423Z,13.20
2023-05-20T02:28:16.298Z,13.10
2023-05-20T02:30:45.212Z,13.10
2023-05-20T02:33:14.155Z,13.10
2023-05-20T02:35:43.085Z,13.10
2023-05-20T02:38:12.407Z,12.80
2023-05-20T02:40:41.507Z,12.70
2023-05-20T02:43:11.810Z,12.80
2023-05-20T02:45:41.214Z,12.70
2023-05-20T02:48:10.129Z,12.80
2023-05-20T02:53:42.296Z,12.70
2023-05-20T02:56:11.186Z,12.70
2023-05-20T02:58:41.719Z,12.60
2023-05-20T03:01:10.856Z,12.80
2023-05-20T03:03:40.804Z,12.70
2023-05-20T03:06:09.880Z,12.70
2023-05-20T03:08:39.981Z,12.80
2023-05-20T03:11:08.958Z,12.60
2023-05-20T03:13:37.869Z,12.70
2023-05-20T03:16:08.618Z,12.70
2023-05-20T03:18:38.562Z,12.70
2023-05-20T03:21:08.980Z,12.80
2023-05-20T03:23:37.968Z,12.80
2023-05-20T03:26:07.419Z,12.80
2023-05-20T03:28:37.447Z,12.70
2023-05-20T03:31:08.269Z,12.70
2023-05-20T03:33:37.189Z,12.70
2023-05-20T03:36:07.937Z,12.70
2023-05-20T03:38:37.705Z,12.80
2023-05-20T03:41:07.424Z,12.70
2023-05-20T03:43:42.128Z,12.80
2023-05-20T03:46:13.526Z,12.80
2023-05-20T03:48:43.356Z,12.80
2023-05-20T03:51:14.191Z,12.80
2023-05-20T03:53:43.520Z,12.80
2023-05-20T03:56:13.084Z,12.80
2023-05-20T03:58:45.394Z,12.80
2023-05-20T04:01:16.009Z,12.80
2023-05-20T04:03:49.488Z,12.70
2023-05-20T04:06:24.214Z,12.60
2023-05-20T04:08:54.731Z,12.70
2023-05-20T04:11:26.070Z,12.70
2023-05-20T04:13:55.909Z,12.80
2023-05-20T04:16:30.653Z,12.70
2023-05-20T04:19:01.494Z,12.60
2023-05-20T04:21:33.279Z,12.70
2023-05-20T04:24:02.035Z,12.60
2023-05-20T04:26:31.153Z,12.50
2023-05-20T04:29:06.561Z,12.60
2023-05-20T04:31:39.668Z,12.70
2023-05-20T04:34:12.311Z,12.80
2023-05-20T04:36:41.379Z,12.80
2023-05-20T04:39:10.258Z,12.80
2023-05-20T04:41:39.973Z,12.80
2023-05-20T04:44:08.801Z,12.90
2023-05-20T04:46:39.992Z,12.90
2023-05-20T04:49:08.862Z,12.90
2023-05-20T04:51:37.616Z,12.90
2023-05-20T04:54:06.316Z,12.90
2023-05-20T04:56:35.733Z,12.90
2023-05-20T04:59:06.981Z,12.90
2023-05-20T05:01:35.823Z,12.90
2023-05-20T05:04:06.672Z,12.90
2023-05-20T05:06:41.133Z,12.90
2023-05-20T05:09:09.964Z,12.80
2023-05-20T05:11:42.982Z,12.80
2023-05-20T05:14:12.660Z,12.80
2023-05-20T05:16:44.143Z,12.80
2023-05-20T05:19:14.778Z,12.90
2023-05-20T05:21:45.483Z,12.90
2023-05-20T05:24:15.319Z,12.90
2023-05-20T05:26:45.566Z,12.80
2023-05-20T05:29:14.406Z,12.80
2023-05-20T05:31:44.223Z,12.70
2023-05-20T05:34:14.502Z,12.80
2023-05-20T05:36:43.425Z,12.70
2023-05-20T05:39:13.397Z,12.70
2023-05-20T05:41:42.531Z,12.70
2023-05-20T05:44:11.444Z,12.70
2023-05-20T05:46:40.279Z,12.80
2023-05-20T05:49:10.064Z,12.80
2023-05-20T05:51:40.318Z,12.70
2023-05-20T05:54:09.217Z,12.80
2023-05-20T05:56:38.296Z,12.80
2023-05-20T05:59:07.746Z,12.80
2023-05-20T06:01:37.508Z,12.80
2023-05-20T06:04:07.549Z,12.80
2023-05-20T06:06:37.913Z,12.80
2023-05-20T06:09:08.461Z,12.90
2023-05-20T06:11:38.368Z,12.90
2023-05-20T06:14:07.087Z,13.00
2023-05-20T06:16:36.573Z,13.00
2023-05-20T06:19:11.226Z,13.00
2023-05-20T06:21:48.453Z,13.00
2023-05-20T06:24:41.962Z,13.10
2023-05-20T06:27:11.279Z,13.20
2023-05-20T06:29:42.422Z,13.20
2023-05-20T06:32:12.557Z,13.00
2023-05-20T06:34:42.676Z,13.10
2023-05-20T06:37:12.245Z,13.20
2023-05-20T06:39:42.544Z,13.10
2023-05-20T06:42:16.556Z,13.20
2023-05-20T06:44:50.687Z,13.30
2023-05-20T06:47:34.079Z,13.30
2023-05-20T06:50:04.051Z,13.40
2023-05-20T06:52:34.010Z,13.30
2023-05-20T06:55:05.854Z,13.40
2023-05-20T06:57:36.430Z,13.40
2023-05-20T07:00:06.666Z,13.40
2023-05-20T07:02:41.212Z,13.30
2023-05-20T07:05:11.543Z,13.30
2023-05-20T07:07:41.606Z,13.40
2023-05-20T07:10:13.818Z,13.40
2023-05-20T07:12:44.196Z,13.40
2023-05-20T07:15:13.685Z,13.50
2023-05-20T07:17:43.385Z,13.60
2023-05-20T07:20:13.084Z,13.60
2023-05-20T07:22:42.028Z,13.70
2023-05-20T07:25:18.787Z,13.70
2023-05-20T07:27:48.544Z,13.80
2023-05-20T07:30:17.630Z,13.80
2023-05-20T07:32:54.773Z,13.80
2023-05-20T07:35:25.030Z,13.80
2023-05-20T07:37:54.681Z,13.90
2023-05-20T07:40:25.310Z,14.00
2023-05-20T07:42:54.160Z,14.10
2023-05-20T07:45:23.164Z,14.00
2023-05-20T07:47:52.242Z,14.10
2023-05-20T07:50:30.364Z,14.10
2023-05-20T07:52:59.699Z,14.10
2023-05-20T07:55:37.087Z,14.10
2023-05-20T07:58:06.966Z,14.20
2023-05-20T08:00:37.358Z,14.20
2023-05-20T08:03:10.420Z,14.20
2023-05-20T08:05:56.792Z,14.30
2023-05-20T08:08:26.939Z,14.30
2023-05-20T08:11:04.218Z,14.30
2023-05-20T08:13:34.833Z,14.40
2023-05-20T08:16:06.015Z,14.50
2023-05-20T08:18:36.808Z,14.60
2023-05-20T08:21:08.873Z,14.70
2023-05-20T08:23:40.358Z,14.90
2023-05-20T08:26:11.536Z,15.00
2023-05-20T08:28:43.607Z,15.20
2023-05-20T08:31:12.913Z,15.30
2023-05-20T08:33:42.739Z,15.30
2023-05-20T08:36:12.961Z,15.30
2023-05-20T08:38:42.129Z,15.20
2023-05-20T08:41:12.597Z,15.20
2023-05-20T08:43:46.324Z,15.00
2023-05-20T08:46:18.309Z,15.10
2023-05-20T08:48:49.615Z,15.30
2023-05-20T08:51:23.931Z,15.40
2023-05-20T08:54:20.516Z,15.40
2023-05-20T08:56:54.229Z,15.50
2023-05-20T08:59:25.364Z,15.90
2023-05-20T09:01:56.194Z,16.00
2023-05-20T09:04:26.517Z,16.10
2023-05-20T09:06:56.809Z,16.30
2023-05-20T09:09:26.600Z,16.40
2023-05-20T09:11:57.662Z,16.50
2023-05-20T09:14:30.807Z,16.50
2023-05-20T09:17:01.654Z,16.60
2023-05-20T09:19:30.998Z,16.60
2023-05-20T09:22:00.384Z,16.70
2023-05-20T09:24:29.516Z,16.80
2023-05-20T09:27:02.273Z,16.90
2023-05-20T09:29:35.759Z,16.90
2023-05-20T09:32:06.998Z,17.00
2023-05-20T09:34:36.472Z,17.30
2023-05-20T09:37:08.765Z,17.50
2023-05-20T09:39:50.946Z,17.60
2023-05-20T09:42:29.197Z,17.80
2023-05-20T09:45:00.221Z,17.90
2023-05-20T09:47:29.546Z,18.10
2023-05-20T09:50:01.322Z,18.20
2023-05-20T09:52:40.168Z,18.30
2023-05-20T09:55:11.756Z,18.50
2023-05-20T09:57:42.071Z,18.80
2023-05-20T10:00:13.767Z,18.90
2023-05-20T10:02:48.078Z,19.00
2023-05-20T10:05:21.850Z,19.00
2023-05-20T10:08:27.880Z,19.10
2023-05-20T10:11:21.902Z,19.30
2023-05-20T10:14:35.062Z,19.50
2023-05-20T10:17:18.356Z,19.70
2023-05-20T10:19:50.744Z,19.80
2023-05-20T10:22:29.832Z,19.90
2023-05-20T10:25:01.974Z,20.10
2023-05-20T10:27:30.959Z,20.20
2023-05-20T10:30:01.107Z,20.30
2023-05-20T10:32:32.411Z,20.30
2023-05-20T10:35:05.493Z,20.30
2023-05-20T10:37:42.265Z,20.30
2023-05-20T10:40:14.562Z,20.30
2023-05-20T10:42:45.138Z,20.10
2023-05-20T10:45:28.458Z,20.10
2023-05-20T10:47:59.126Z,20.40
2023-05-20T10:50:43.749Z,20.30
2023-05-20T10:53:29.308Z,20.60
2023-05-20T10:56:02.940Z,21.00
2023-05-20T10:58:40.275Z,21.20
2023-05-20T11:01:14.275Z,21.20
2023-05-20T11:03:44.661Z,21.10
2023-05-20T11:06:16.148Z,21.30
2023-05-20T11:08:47.839Z,21.40
2023-05-20T11:11:17.049Z,21.40
2023-05-20T11:13:46.325Z,21.50
2023-05-20T11:16:17.194Z,21.60
2023-05-20T11:18:46.039Z,21.80
2023-05-20T11:21:14.973Z,21.70
2023-05-20T11:23:44.201Z,21.60
2023-05-20T11:26:13.299Z,21.70
2023-05-20T11:28:42.386Z,21.80
2023-05-20T11:31:12.007Z,21.90
2023-05-20T11:33:45.779Z,22.20
2023-05-20T11:36:26.913Z,22.20
2023-05-20T11:38:59.750Z,22.60
2023-05-20T11:41:30.272Z,22.70
2023-05-20T11:44:00.300Z,22.60
2023-05-20T11:46:30.047Z,22.80
2023-05-20T11:49:00.146Z,22.80
2023-05-20T11:51:30.939Z,22.70
2023-05-20T11:54:02.688Z,23.00
2023-05-20T11:56:32.289Z,23.00
2023-05-20T11:59:02.478Z,23.10
2023-05-20T12:01:37.747Z,23.20
2023-05-20T12:04:08.665Z,23.20
2023-05-20T12:06:38.358Z,22.90
2023-05-20T12:09:09.047Z,23.10
2023-05-20T12:11:41.695Z,23.40
2023-05-20T12:14:12.511Z,23.30
2023-05-20T12:16:41.460Z,23.50
2023-05-20T12:19:11.680Z,23.60
2023-05-20T12:21:40.542Z,23.50
2023-05-20T12:24:09.415Z,23.70
2023-05-20T12:26:39.131Z,23.80
2023-05-20T12:29:08.150Z,24.00
2023-05-20T12:31:36.839Z,24.10
2023-05-20T12:34:05.645Z,24.30
2023-05-20T12:36:35.759Z,24.30
2023-05-20T12:39:05.276Z,24.60
2023-05-20T12:41:33.980Z,24.70
2023-05-20T12:44:02.742Z,24.80
2023-05-20T12:46:32.092Z,24.80
2023-05-20T12:49:00.951Z,24.60
2023-05-20T12:51:31.121Z,24.70
2023-05-20T12:54:01.342Z,24.80
2023-05-20T12:56:30.604Z,25.10
2023-05-20T12:58:59.380Z,24.90
2023-05-20T13:01:28.322Z,24.70
2023-05-20T13:03:57.102Z,24.70
2023-05-20T13:06:26.312Z,25.00
2023-05-20T13:08:54.983Z,25.40
2023-05-20T13:11:25.527Z,25.30
2023-05-20T13:13:56.648Z,25.30
2023-05-20T13:16:26.153Z,25.60
2023-05-20T13:18:55.020Z,25.40
2023-05-20T13:21:24.363Z,25.70
2023-05-20T13:23:53.218Z,25.80
2023-05-20T13:26:22.009Z,25.80
2023-05-20T13:28:52.632Z,25.80
2023-05-20T13:31:21.498Z,25.70
2023-05-20T13:33:50.291Z,25.70
2023-05-20T13:36:19.589Z,25.80
2023-05-20T13:38:48.482Z,26.10
2023-05-20T13:41:17.304Z,26.20
2023-05-20T13:43:46.717Z,25.90
2023-05-20T13:46:18.484Z,25.70
2023-05-20T13:48:47.249Z,25.50
2023-05-20T13:51:16.074Z,25.50
2023-05-20T13:53:44.776Z,25.40
2023-05-20T13:56:13.658Z,24.90
2023-05-20T13:58:43.460Z,24.80
2023-05-20T14:01:13.451Z,25.00
2023-05-20T14:03:43.867Z,25.10
2023-05-20T14:06:15.102Z,25.00
2023-05-20T14:08:43.877Z,25.20
2023-05-20T14:11:13.005Z,25.20
2023-05-20T14:13:42.238Z,24.90
2023-05-20T14:16:11.276Z,24.80
2023-05-20T14:18:40.060Z,24.70
2023-05-20T14:21:10.520Z,24.50
2023-05-20T14:23:41.089Z,24.60
2023-05-20T14:26:09.842Z,24.60
2023-05-20T14:28:38.890Z,24.30
2023-05-20T14:31:09.835Z,24.20
2023-05-20T14:33:39.983Z,24.20
2023-05-20T14:36:11.071Z,24.30
2023-05-20T14:38:40.168Z,24.50
2023-05-20T14:41:08.806Z,24.90
2023-05-20T14:43:37.934Z,25.30
2023-05-20T14:46:06.935Z,25.30
2023-05-20T14:48:35.698Z,24.60
2023-05-20T14:51:04.416Z,24.50
2023-05-20T14:53:36.732Z,24.20
2023-05-20T14:56:06.028Z,24.20
2023-05-20T14:58:35.044Z,24.20
2023-05-20T15:01:04.052Z,24.20
2023-05-20T15:03:32.884Z,24.20
2023-05-20T15:06:01.728Z,24.00
2023-05-20T15:08:30.472Z,23.60
2023-05-20T15:11:00.568Z,23.60
2023-05-20T15:13:29.266Z,23.40
2023-05-20T15:15:58.041Z,23.40
2023-05-20T15:18:27.247Z,23.60
2023-05-20T15:20:55.981Z,23.90
2023-05-20T15:23:24.664Z,23.90
2023-05-20T15:25:53.405Z,23.70
2023-05-20T15:28:23.455Z,23.60
2023-05-20T15:30:56.882Z,23.50
2023-05-20T15:33:25.676Z,23.50
2023-05-20T15:35:54.419Z,23.10
2023-05-20T15:38:23.418Z,23.10
2023-05-20T15:40:52.187Z,23.10
2023-05-20T15:43:22.566Z,23.10
2023-05-20T15:45:51.371Z,22.90
2023-05-20T15:48:20.116Z,23.10
2023-05-20T15:50:48.925Z,23.10
2023-05-20T15:53:17.692Z,23.10
2023-05-20T15:55:46.452Z,23.00
2023-05-20T15:58:15.143Z,23.00
2023-05-20T16:00:45.412Z,23.00
2023-05-20T16:03:14.235Z,22.70
2023-05-20T16:05:43.064Z,22.90
2023-05-20T16:08:11.756Z,23.10
2023-05-20T16:10:40.765Z,23.10
2023-05-20T16:13:09.472Z,23.10
2023-05-20T16:15:38.643Z,23.10
2023-05-20T16:18:09.273Z,23.00
2023-05-20T16:20:37.975Z,22.70
2023-05-20T16:23:07.529Z,22.60
2023-05-20T16:25:36.304Z,22.50
2023-05-20T16:28:05.050Z,22.60
2023-05-20T16:30:33.931Z,22.50
2023-05-20T16:33:02.950Z,22.50
2023-05-20T16:35:33.075Z,22.50
2023-05-20T16:38:02.211Z,22.30
2023-05-20T16:40:32.125Z,22.20
2023-05-20T16:43:01.170Z,22.10
2023-05-20T16:45:30.686Z,22.30
2023-05-20T16:47:59.823Z,22.30
2023-05-20T16:50:28.819Z,22.20
2023-05-20T16:52:59.895Z,22.00
2023-05-20T16:55:28.891Z,22.00
2023-05-20T16:57:57.973Z,22.10
2023-05-20T17:00:27.806Z,22.00
2023-05-20T17:02:56.601Z,21.70
2023-05-20T17:05:26.091Z,21.90
2023-05-20T17:07:58.998Z,22.00
2023-05-20T17:10:29.700Z,21.90
2023-05-20T17:12:58.635Z,21.90
2023-05-20T17:15:27.396Z,21.70
2023-05-20T17:17:56.123Z,21.70
2023-05-20T17:20:28.048Z,21.50
2023-05-20T17:22:57.478Z,21.60
2023-05-20T17:25:26.982Z,21.40
2023-05-20T17:27:58.125Z,21.30
2023-05-20T17:30:27.365Z,21.50
2023-05-20T17:32:57.430Z,21.50
2023-05-20T17:35:26.701Z,21.30
2023-05-20T17:37:56.167Z,21.20
2023-05-20T17:40:25.768Z,21.20
2023-05-20T17:42:56.142Z,21.20
2023-05-20T17:45:24.986Z,21.10
2023-05-20T17:47:53.896Z,21.00
2023-05-20T17:50:23.322Z,21.10
2023-05-20T17:52:53.345Z,21.20
2023-05-20T17:55:24.185Z,21.10
2023-05-20T17:57:54.447Z,21.10
2023-05-20T18:00:26.699Z,21.10
2023-05-20T18:02:58.521Z,21.00
2023-05-20T18:05:27.858Z,20.90
2023-05-20T18:07:57.385Z,20.80
2023-05-20T18:10:26.186Z,20.80
2023-05-20T18:12:54.879Z,20.80
2023-05-20T18:15:24.974Z,20.60
2023-05-20T18:17:54.299Z,20.50
2023-05-20T18:20:23.393Z,20.40
2023-05-20T18:22:58.541Z,20.30
2023-05-20T18:25:29.000Z,20.30
2023-05-20T18:27:58.262Z,20.40
2023-05-20T18:30:28.969Z,20.30
2023-05-20T18:32:58.763Z,20.30
2023-05-20T18:35:28.371Z,20.10
2023-05-20T18:38:00.180Z,20.20
2023-05-20T18:40:39.395Z,20.20
2023-05-20T18:43:09.364Z,20.00
2023-05-20T18:45:40.621Z,20.00
2023-05-20T18:48:10.664Z,20.00
2023-05-20T18:50:39.756Z,20.00
2023-05-20T18:53:08.663Z,19.80
2023-05-20T18:55:37.477Z,20.00
2023-05-20T18:58:06.629Z,19.70
2023-05-20T19:00:37.109Z,19.80
2023-05-20T19:03:08.229Z,19.90
2023-05-20T19:05:37.471Z,19.90
2023-05-20T19:08:08.976Z,19.70
2023-05-20T19:10:37.923Z,19.70
2023-05-20T19:13:06.734Z,19.50
2023-05-20T19:15:35.782Z,19.20
2023-05-20T19:18:07.200Z,19.40
2023-05-20T19:20:35.906Z,19.10
2023-05-20T19:23:04.628Z,19.10
2023-05-20T19:25:33.541Z,19.00
2023-05-20T19:28:02.537Z,19.30
2023-05-20T19:30:31.289Z,19.30
2023-05-20T19:33:02.341Z,19.30
2023-05-20T19:35:33.494Z,19.40
2023-05-20T19:38:05.007Z,19.50
2023-05-20T19:40:34.417Z,19.40
2023-05-20T19:43:03.152Z,19.30
2023-05-20T19:45:32.327Z,19.20
2023-05-20T19:48:01.465Z,19.20
2023-05-20T19:50:31.684Z,19.20
2023-05-20T19:53:13.641Z,19.00
2023-05-20T19:55:42.553Z,19.10
2023-05-20T19:58:11.713Z,19.00
2023-05-20T20:00:40.652Z,18.90
2023-05-20T20:03:09.396Z,18.90
2023-05-20T20:05:39.640Z,18.80
2023-05-20T20:08:09.470Z,18.80
2023-05-20T20:10:38.204Z,18.70
2023-05-20T20:13:07.408Z,18.90
2023-05-20T20:15:36.407Z,19.00
2023-05-20T20:18:05.928Z,19.00
2023-05-20T20:20:39.904Z,18.90
2023-05-20T20:23:10.819Z,18.90
2023-05-20T20:25:42.562Z,18.80
2023-05-20T20:28:12.288Z,18.80
2023-05-20T20:30:41.409Z,18.60
2023-05-20T20:33:10.434Z,18.40
2023-05-20T20:35:39.343Z,18.50
2023-05-20T20:38:10.139Z,18.30
2023-05-20T20:40:41.632Z,18.20
2023-05-20T20:43:20.485Z,18.30
2023-05-20T20:45:53.166Z,18.10
2023-05-20T20:48:26.877Z,18.10
2023-05-20T20:50:56.421Z,18.10
2023-05-20T20:53:26.954Z,18.00
2023-05-20T20:55:57.028Z,18.20
2023-05-20T20:58:27.167Z,18.20
2023-05-20T21:00:56.042Z,18.20
2023-05-20T21:03:26.684Z,18.00
2023-05-20T21:05:56.878Z,17.80
2023-05-20T21:08:28.711Z,18.00
2023-05-20T21:10:59.554Z,17.90
2023-05-20T21:13:28.551Z,17.90
2023-05-20T21:15:57.357Z,17.80
2023-05-20T21:18:26.258Z,17.70
2023-05-20T21:20:56.379Z,17.70
2023-05-20T21:23:25.498Z,17.70
2023-05-20T21:25:55.672Z,17.70
2023-05-20T21:28:34.344Z,17.60
2023-05-20T21:31:03.111Z,17.70
2023-05-20T21:33:31.815Z,17.60
2023-05-20T21:36:00.620Z,17.60
2023-05-20T21:38:29.383Z,17.50
2023-05-20T21:41:01.275Z,17.30
2023-05-20T21:43:30.753Z,17.40
2023-05-20T21:45:59.475Z,17.30
2023-05-20T21:48:28.220Z,17.40
2023-05-20T21:50:57.270Z,17.30
2023-05-20T21:53:25.982Z,17.40
2023-05-20T21:55:54.772Z,17.20
2023-05-20T21:58:25.003Z,17.10
2023-05-20T22:00:53.762Z,17.20
2023-05-20T22:03:22.637Z,17.20
2023-05-20T22:05:51.909Z,16.90
2023-05-20T22:08:20.590Z,16.90
2023-05-20T22:10:49.251Z,17.10
2023-05-20T22:13:20.629Z,16.90
2023-05-20T22:15:51.739Z,16.90
2023-05-20T22:18:22.586Z,17.00
2023-05-20T22:20:51.332Z,16.80
2023-05-20T22:23:20.023Z,16.80
2023-05-20T22:25:48.797Z,16.60
2023-05-20T22:28:17.635Z,16.70
2023-05-20T22:30:46.526Z,16.70
2023-05-20T22:33:16.745Z,16.60
2023-05-20T22:35:45.455Z,16.60
2023-05-20T22:38:14.119Z,16.40
2023-05-20T22:40:42.877Z,16.50
2023-05-20T22:43:13.096Z,16.60
2023-05-20T22:45:41.976Z,16.50
2023-05-20T22:48:10.875Z,16.50
2023-05-20T22:50:41.462Z,16.20
2023-05-20T22:53:11.164Z,16.40
2023-05-20T22:55:39.954Z,16.40
2023-05-20T22:58:09.157Z,16.30
2023-05-20T23:00:38.994Z,16.30
2023-05-20T23:03:08.271Z,16.30
2023-05-20T23:05:37.208Z,16.20
2023-05-20T23:08:07.877Z,16.10
2023-05-20T23:10:36.606Z,16.00
2023-05-20T23:13:05.348Z,16.10
2023-05-20T23:15:34.144Z,16.10
2023-05-20T23:18:03.107Z,16.20
2023-05-20T23:20:31.884Z,16.10
2023-05-20T23:23:08.207Z,16.00
2023-05-20T23:25:42.955Z,16.00
2023-05-20T23:28:13.093Z,16.00
2023-05-20T23:30:42.017Z,15.80
2023-05-20T23:33:10.796Z,15.70
2023-05-20T23:35:39.733Z,15.90
2023-05-20T23:38:08.559Z,15.80
2023-05-20T23:40:37.543Z,15.60
2023-05-20T23:43:07.616Z,15.50
2023-05-20T23:45:36.497Z,15.50
2023-05-20T23:48:06.193Z,15.50
2023-05-20T23:50:34.907Z,15.60
2023-05-20T23:53:03.852Z,15.60
2023-05-20T23:55:32.574Z,15.60
2023-05-20T23:58:01.327Z,15.60
